createdAt,value
2018-11-04T00:00:39.008Z,14.10
2018-11-04T00:03:07.819Z,14.00
2018-11-04T00:05:36.643Z,14.10
2018-11-04T00:08:05.476Z,14.20
2018-11-04T00:10:36.676Z,14.20
2018-11-04T00:13:05.809Z,14.00
2018-11-04T00:15:34.587Z,14.00
2018-11-04T00:18:03.698Z,13.80
2018-11-04T00:20:32.519Z,13.60
2018-11-04T00:23:01.285Z,13.70
2018-11-04T00:25:30.092Z,13.70
2018-11-04T00:27:59.016Z,13.80
2018-11-04T00:30:27.804Z,13.80
2018-11-04T00:32:56.600Z,13.90
2018-11-04T00:35:25.395Z,13.90
2018-11-04T00:37:54.184Z,13.90
2018-11-04T00:40:23.009Z,13.90
2018-11-04T00:42:51.792Z,14.00
2018-11-04T00:45:20.718Z,14.00
2018-11-04T00:47:49.489Z,14.10
2018-11-04T00:50:18.261Z,14.00
2018-11-04T00:52:47.039Z,14.00
2018-11-04T00:55:15.827Z,13.90
2018-11-04T00:57:44.613Z,13.90
2018-11-04T01:00:15.623Z,14.00
2018-11-04T01:02:46.691Z,14.00
2018-11-04T01:05:15.859Z,13.80
2018-11-04T01:07:44.947Z,13.70
2018-11-04T01:10:14.508Z,13.60
2018-11-04T01:12:43.839Z,13.60
2018-11-04T01:15:13.999Z,13.50
2018-11-04T01:17:43.619Z,13.40
2018-11-04T01:20:15.902Z,13.40
2018-11-04T01:22:45.444Z,13.50
2018-11-04T01:25:14.267Z,13.60
2018-11-04T01:27:43.241Z,13.70
2018-11-04T01:30:14.186Z,13.70
2018-11-04T01:32:43.329Z,13.80
2018-11-04T01:35:12.090Z,13.80
2018-11-04T01:37:40.883Z,13.80
2018-11-04T01:40:10.210Z,13.70
2018-11-04T01:42:39.205Z,13.80
2018-11-04T01:45:09.790Z,13.80
2018-11-04T01:47:38.883Z,13.80
2018-11-04T01:50:12.624Z,13.80
2018-11-04T01:52:41.556Z,13.80
2018-11-04T01:55:11.227Z,13.70
2018-11-04T01:57:40.129Z,13.50
2018-11-04T02:00:12.800Z,13.20
2018-11-04T02:02:42.512Z,13.10
2018-11-04T02:05:12.344Z,13.00
2018-11-04T02:07:41.523Z,13.20
2018-11-04T02:10:12.362Z,13.20
2018-11-04T02:12:41.488Z,13.30
2018-11-04T02:15:11.872Z,13.40
2018-11-04T02:17:40.805Z,13.40
2018-11-04T02:20:11.716Z,13.50
2018-11-04T02:22:41.182Z,13.40
2018-11-04T02:25:11.565Z,13.40
2018-11-04T02:27:41.005Z,13.50
2018-11-04T02:30:14.668Z,13.50
2018-11-04T02:32:44.593Z,13.50
2018-11-04T02:35:14.296Z,13.50
2018-11-04T02:37:43.270Z,13.50
2018-11-04T02:40:12.768Z,13.50
2018-11-04T02:42:41.826Z,13.60
2018-11-04T02:45:11.243Z,13.60
2018-11-04T02:47:40.417Z,13.60
2018-11-04T02:50:10.367Z,13.70
2018-11-04T02:52:39.685Z,13.60
2018-11-04T02:55:09.288Z,13.60
2018-11-04T02:57:38.484Z,13.60
2018-11-04T03:00:10.064Z,13.60
2018-11-04T03:02:39.209Z,13.60
2018-11-04T03:05:08.880Z,13.60
2018-11-04T03:07:37.989Z,13.60
2018-11-04T03:10:07.588Z,13.60
2018-11-04T03:12:36.580Z,13.60
2018-11-04T03:15:05.776Z,13.60
2018-11-04T03:17:34.860Z,13.60
2018-11-04T03:20:03.970Z,13.50
2018-11-04T03:22:33.056Z,13.40
2018-11-04T03:25:02.164Z,13.40
2018-11-04T03:27:31.368Z,13.30
2018-11-04T03:30:00.457Z,13.40
2018-11-04T03:32:29.545Z,13.50
2018-11-04T03:34:58.623Z,13.50
2018-11-04T03:37:27.828Z,13.50
2018-11-04T03:39:56.996Z,13.50
2018-11-04T03:42:26.017Z,13.50
2018-11-04T03:44:55.084Z,13.50
2018-11-04T03:47:24.312Z,13.30
2018-11-04T03:49:53.133Z,13.10
2018-11-04T03:52:22.136Z,13.10
2018-11-04T03:54:51.202Z,13.10
2018-11-04T03:57:20.200Z,12.90
2018-11-04T03:59:49.184Z,12.90
2018-11-04T04:02:18.279Z,12.70
2018-11-04T04:04:47.387Z,12.70
2018-11-04T04:07:16.468Z,12.80
2018-11-04T04:09:45.452Z,12.80
2018-11-04T04:12:14.425Z,12.80
2018-11-04T04:14:43.658Z,12.70
2018-11-04T04:17:12.856Z,12.90
2018-11-04T04:19:41.824Z,13.00
2018-11-04T04:22:10.920Z,13.10
2018-11-04T04:24:40.004Z,13.20
2018-11-04T04:27:09.112Z,13.20
2018-11-04T04:29:38.164Z,13.30
2018-11-04T04:32:07.300Z,13.30
2018-11-04T04:34:36.375Z,13.20
2018-11-04T04:37:05.383Z,13.20
2018-11-04T04:39:34.483Z,13.10
2018-11-04T04:42:03.577Z,13.20
2018-11-04T04:44:32.675Z,13.30
2018-11-04T04:47:01.783Z,13.30
2018-11-04T04:49:31.051Z,13.30
2018-11-04T04:51:59.831Z,13.30
2018-11-04T04:54:28.932Z,13.20
2018-11-04T04:56:57.940Z,13.20
2018-11-04T04:59:26.949Z,12.90
2018-11-04T05:01:56.300Z,13.00
2018-11-04T05:04:25.132Z,12.80
2018-11-04T05:06:54.083Z,13.00
2018-11-04T05:09:23.101Z,13.10
2018-11-04T05:11:52.111Z,13.20
2018-11-04T05:14:21.299Z,13.10
2018-11-04T05:16:50.271Z,13.10
2018-11-04T05:19:19.388Z,13.10
2018-11-04T05:21:48.479Z,13.10
2018-11-04T05:24:17.592Z,13.10
2018-11-04T05:26:46.749Z,13.10
2018-11-04T05:29:15.867Z,13.20
2018-11-04T05:31:44.957Z,13.20
2018-11-04T05:34:14.056Z,13.20
2018-11-04T05:36:43.163Z,13.20
2018-11-04T05:39:12.340Z,13.20
2018-11-04T05:41:41.326Z,13.20
2018-11-04T05:44:10.530Z,13.30
2018-11-04T05:46:39.614Z,13.30
2018-11-04T05:49:08.724Z,13.30
2018-11-04T05:51:37.696Z,13.30
2018-11-04T05:54:06.788Z,13.30
2018-11-04T05:56:35.641Z,13.30
2018-11-04T05:59:04.769Z,13.20
2018-11-04T06:01:33.816Z,13.30
2018-11-04T06:04:02.764Z,13.30
2018-11-04T06:06:31.824Z,13.30
2018-11-04T06:09:00.589Z,13.30
2018-11-04T06:11:29.648Z,13.30
2018-11-04T06:13:58.667Z,13.30
2018-11-04T06:16:27.751Z,13.30
2018-11-04T06:18:56.841Z,13.30
2018-11-04T06:21:25.946Z,13.30
2018-11-04T06:23:54.940Z,13.20
2018-11-04T06:26:24.032Z,13.00
2018-11-04T06:28:53.117Z,12.80
2018-11-04T06:31:22.295Z,12.90
2018-11-04T06:33:51.300Z,12.90
2018-11-04T06:36:20.458Z,13.00
2018-11-04T06:38:49.515Z,13.10
2018-11-04T06:41:18.636Z,13.10
2018-11-04T06:43:47.690Z,13.10
2018-11-04T06:46:16.683Z,13.10
2018-11-04T06:48:45.721Z,13.20
2018-11-04T06:51:14.910Z,13.20
2018-11-04T06:53:43.957Z,13.20
2018-11-04T06:56:12.959Z,13.20
2018-11-04T06:58:41.959Z,13.20
2018-11-04T07:01:11.052Z,13.20
2018-11-04T07:03:45.317Z,13.30
2018-11-04T07:06:14.355Z,13.40
2018-11-04T07:08:43.337Z,13.30
2018-11-04T07:11:12.328Z,13.30
2018-11-04T07:13:41.336Z,13.30
2018-11-04T07:16:10.437Z,13.40
2018-11-04T07:18:39.523Z,13.40
2018-11-04T07:21:08.719Z,13.50
2018-11-04T07:23:37.699Z,13.50
2018-11-04T07:26:07.136Z,13.40
2018-11-04T07:28:36.131Z,13.50
2018-11-04T07:31:05.307Z,13.50
2018-11-04T07:33:34.270Z,13.50
2018-11-04T07:36:03.380Z,13.40
2018-11-04T07:38:32.481Z,13.40
2018-11-04T07:41:01.596Z,13.40
2018-11-04T07:43:30.681Z,13.40
2018-11-04T07:45:59.772Z,13.40
2018-11-04T07:48:28.852Z,13.40
2018-11-04T07:50:57.950Z,13.40
2018-11-04T07:53:27.065Z,13.40
2018-11-04T07:55:56.159Z,13.40
2018-11-04T07:58:25.251Z,13.50
2018-11-04T08:00:54.450Z,13.50
2018-11-04T08:03:23.347Z,13.40
2018-11-04T08:05:52.329Z,13.40
2018-11-04T08:08:21.295Z,13.50
2018-11-04T08:10:50.400Z,13.60
2018-11-04T08:13:19.566Z,13.60
2018-11-04T08:15:48.697Z,13.60
2018-11-04T08:18:17.909Z,13.60
2018-11-04T08:20:46.991Z,13.60
2018-11-04T08:23:16.206Z,13.60
2018-11-04T08:25:45.180Z,13.70
2018-11-04T08:28:14.366Z,13.70
2018-11-04T08:30:43.389Z,13.70
2018-11-04T08:33:12.198Z,13.70
2018-11-04T08:35:41.363Z,13.80
2018-11-04T08:38:10.445Z,13.80
2018-11-04T08:40:39.554Z,13.80
2018-11-04T08:43:08.664Z,13.90
2018-11-04T08:45:37.689Z,13.90
2018-11-04T08:48:06.823Z,13.90
2018-11-04T08:50:35.925Z,13.90
2018-11-04T08:53:05.344Z,14.00
2018-11-04T08:55:34.431Z,14.00
2018-11-04T08:58:03.489Z,14.00
2018-11-04T09:00:32.319Z,13.90
2018-11-04T09:03:01.136Z,13.90
2018-11-04T09:05:43.406Z,14.00
2018-11-04T09:08:12.868Z,14.00
2018-11-04T09:10:41.662Z,14.10
2018-11-04T09:13:10.431Z,14.00
2018-11-04T09:15:39.223Z,14.10
2018-11-04T09:18:08.324Z,14.10
2018-11-04T09:20:37.089Z,14.10
2018-11-04T09:23:06.125Z,14.10
2018-11-04T09:25:34.944Z,14.10
2018-11-04T09:28:03.742Z,14.20
2018-11-04T09:30:32.491Z,14.20
2018-11-04T09:33:01.313Z,14.10
2018-11-04T09:35:30.258Z,14.10
2018-11-04T09:37:59.031Z,14.20
2018-11-04T09:40:27.849Z,14.20
2018-11-04T09:42:56.633Z,14.20
2018-11-04T09:45:25.448Z,14.20
2018-11-04T09:47:54.274Z,14.20
2018-11-04T09:50:23.084Z,14.20
2018-11-04T09:52:51.856Z,14.20
2018-11-04T09:55:20.747Z,14.20
2018-11-04T09:57:49.632Z,14.20
2018-11-04T10:00:18.432Z,14.20
2018-11-04T10:02:47.234Z,14.20
2018-11-04T10:05:16.054Z,14.30
2018-11-04T10:07:44.857Z,14.20
2018-11-04T10:10:14.699Z,14.30
2018-11-04T10:12:44.548Z,14.30
2018-11-04T10:15:13.472Z,14.30
2018-11-04T10:17:42.594Z,14.30
2018-11-04T10:20:12.638Z,14.30
2018-11-04T10:22:41.584Z,14.30
2018-11-04T10:25:11.825Z,14.30
2018-11-04T10:27:41.285Z,14.30
2018-11-04T10:30:13.048Z,14.40
2018-11-04T10:32:41.864Z,14.40
2018-11-04T10:35:11.166Z,14.40
2018-11-04T10:37:40.816Z,14.40
2018-11-04T10:40:10.576Z,14.30
2018-11-04T10:42:39.490Z,14.40
2018-11-04T10:45:09.639Z,14.40
2018-11-04T10:47:38.481Z,14.40
2018-11-04T10:50:09.329Z,14.40
2018-11-04T10:52:38.215Z,14.50
2018-11-04T10:55:07.941Z,14.50
2018-11-04T10:57:36.788Z,14.50
2018-11-04T11:00:10.081Z,14.60
2018-11-04T11:02:39.163Z,14.60
2018-11-04T11:05:08.440Z,14.60
2018-11-04T11:07:37.550Z,14.60
2018-11-04T11:10:08.164Z,14.70
2018-11-04T11:12:37.001Z,14.70
2018-11-04T11:15:07.157Z,14.60
2018-11-04T11:17:36.743Z,14.70
2018-11-04T11:20:07.020Z,14.70
2018-11-04T11:22:36.238Z,14.70
2018-11-04T11:25:05.592Z,14.80
2018-11-04T11:27:34.552Z,14.80
2018-11-04T11:30:03.441Z,14.80
2018-11-04T11:32:32.272Z,14.80
2018-11-04T11:35:01.060Z,14.80
2018-11-04T11:37:29.970Z,14.80
2018-11-04T11:39:58.796Z,14.90
2018-11-04T11:42:27.650Z,14.90
2018-11-04T11:44:56.479Z,14.90
2018-11-04T11:47:25.260Z,14.90
2018-11-04T11:49:54.063Z,14.90
2018-11-04T11:52:23.136Z,15.00
2018-11-04T11:54:51.950Z,15.00
2018-11-04T11:57:20.786Z,15.00
2018-11-04T11:59:49.590Z,15.00
2018-11-04T12:02:18.479Z,15.00
2018-11-04T12:04:47.302Z,15.00
2018-11-04T12:07:16.100Z,15.10
2018-11-04T12:09:44.934Z,15.10
2018-11-04T12:12:13.677Z,15.10
2018-11-04T12:14:42.461Z,15.10
2018-11-04T12:17:11.258Z,15.20
2018-11-04T12:19:40.071Z,15.20
2018-11-04T12:22:08.897Z,15.20
2018-11-04T12:24:37.689Z,15.20
2018-11-04T12:27:06.506Z,15.20
2018-11-04T12:29:35.309Z,15.20
2018-11-04T12:32:04.095Z,15.20
2018-11-04T12:34:32.874Z,15.20
2018-11-04T12:37:01.678Z,15.20
2018-11-04T12:39:30.442Z,15.20
2018-11-04T12:41:59.262Z,15.20
2018-11-04T12:44:28.059Z,15.30
2018-11-04T12:46:56.911Z,15.20
2018-11-04T12:49:25.718Z,15.20
2018-11-04T12:51:54.506Z,15.30
2018-11-04T12:54:23.356Z,15.30
2018-11-04T12:56:52.236Z,15.30
2018-11-04T12:59:21.046Z,15.30
2018-11-04T13:01:49.857Z,15.30
2018-11-04T13:04:18.658Z,15.30
2018-11-04T13:06:47.440Z,15.30
2018-11-04T13:09:16.212Z,15.30
2018-11-04T13:11:45.007Z,15.30
2018-11-04T13:14:13.822Z,15.30
2018-11-04T13:16:42.587Z,15.30
2018-11-04T13:19:11.405Z,15.30
2018-11-04T13:21:40.186Z,15.30
2018-11-04T13:24:08.996Z,15.30
2018-11-04T13:26:37.785Z,15.30
2018-11-04T13:29:07.006Z,15.30
2018-11-04T13:31:36.035Z,15.30
2018-11-04T13:34:05.286Z,15.40
2018-11-04T13:36:34.036Z,15.40
2018-11-04T13:39:02.903Z,15.40
2018-11-04T13:41:31.679Z,15.30
2018-11-04T13:44:00.484Z,15.30
2018-11-04T13:46:29.268Z,15.30
2018-11-04T13:48:58.111Z,15.40
2018-11-04T13:51:26.907Z,15.30
2018-11-04T13:53:55.709Z,15.30
2018-11-04T13:56:24.513Z,15.30
2018-11-04T13:58:53.967Z,15.40
2018-11-04T14:01:22.868Z,15.30
2018-11-04T14:03:51.773Z,15.30
2018-11-04T14:06:20.598Z,15.30
2018-11-04T14:08:49.501Z,15.20
2018-11-04T14:11:18.304Z,15.30
2018-11-04T14:13:47.081Z,15.30
2018-11-04T14:16:15.902Z,15.30
2018-11-04T14:18:44.677Z,15.30
2018-11-04T14:21:13.480Z,15.30
2018-11-04T14:23:42.258Z,15.30
2018-11-04T14:26:11.154Z,15.30
2018-11-04T14:28:39.934Z,15.30
2018-11-04T14:31:08.965Z,15.30
2018-11-04T14:33:37.576Z,15.30
2018-11-04T14:36:06.425Z,15.20
2018-11-04T14:38:35.206Z,15.20
2018-11-04T14:41:04.045Z,15.20
2018-11-04T14:43:32.814Z,15.20
2018-11-04T14:46:01.649Z,15.20
2018-11-04T14:48:30.539Z,15.20
2018-11-04T14:50:59.344Z,15.10
2018-11-04T14:53:28.133Z,15.20
2018-11-04T14:55:56.906Z,15.20
2018-11-04T14:58:25.771Z,15.20
2018-11-04T15:00:54.563Z,15.30
2018-11-04T15:03:23.336Z,15.30
2018-11-04T15:05:52.129Z,15.30
2018-11-04T15:08:21.236Z,15.30
2018-11-04T15:10:50.411Z,15.30
2018-11-04T15:13:19.203Z,15.40
2018-11-04T15:15:48.055Z,15.40
2018-11-04T15:18:16.861Z,15.30
2018-11-04T15:20:45.929Z,15.40
2018-11-04T15:23:15.146Z,15.40
2018-11-04T15:25:43.939Z,15.40
2018-11-04T15:28:12.795Z,15.40
2018-11-04T15:30:41.623Z,15.40
2018-11-04T15:33:10.403Z,15.20
2018-11-04T15:35:39.283Z,15.10
2018-11-04T15:38:08.165Z,15.10
2018-11-04T15:40:37.018Z,15.00
2018-11-04T15:43:05.896Z,14.90
2018-11-04T15:45:34.833Z,15.00
2018-11-04T15:48:03.719Z,15.10
2018-11-04T15:50:32.613Z,15.10
2018-11-04T15:53:01.415Z,15.20
2018-11-04T15:55:30.238Z,15.10
2018-11-04T15:57:59.076Z,14.90
2018-11-04T16:00:27.926Z,14.90
2018-11-04T16:02:56.730Z,15.00
2018-11-04T16:05:25.562Z,15.10
2018-11-04T16:07:54.344Z,15.10
2018-11-04T16:10:23.350Z,15.20
2018-11-04T16:12:52.348Z,15.20
2018-11-04T16:15:21.449Z,15.30
2018-11-04T16:17:50.296Z,15.30
2018-11-04T16:20:19.088Z,15.30
2018-11-04T16:22:47.914Z,15.40
2018-11-04T16:25:17.003Z,15.40
2018-11-04T16:27:45.784Z,15.30
2018-11-04T16:30:15.489Z,15.30
2018-11-04T16:32:44.362Z,15.20
2018-11-04T16:35:13.946Z,15.20
2018-11-04T16:37:43.729Z,15.20
2018-11-04T16:40:12.536Z,15.30
2018-11-04T16:42:41.730Z,15.20
2018-11-04T16:45:13.477Z,15.20
2018-11-04T16:47:42.627Z,15.20
2018-11-04T16:50:12.675Z,15.20
2018-11-04T16:52:42.200Z,15.20
2018-11-04T16:55:11.793Z,15.20
2018-11-04T16:57:40.600Z,15.20
2018-11-04T17:00:10.701Z,15.10
2018-11-04T17:02:40.090Z,15.00
2018-11-04T17:05:10.400Z,14.90
2018-11-04T17:07:39.472Z,14.90
2018-11-04T17:10:09.065Z,15.00
2018-11-04T17:12:37.984Z,15.00
2018-11-04T17:15:09.156Z,15.10
2018-11-04T17:17:38.258Z,15.10
2018-11-04T17:20:10.419Z,15.10
2018-11-04T17:22:39.762Z,15.10
2018-11-04T17:25:09.241Z,15.10
2018-11-04T17:27:38.074Z,15.00
2018-11-04T17:30:10.001Z,15.10
2018-11-04T17:32:39.027Z,15.10
2018-11-04T17:35:09.228Z,15.10
2018-11-04T17:37:38.448Z,15.10
2018-11-04T17:40:08.956Z,15.10
2018-11-04T17:42:38.089Z,15.10
2018-11-04T17:45:08.632Z,15.10
2018-11-04T17:47:37.817Z,15.10
2018-11-04T17:50:08.905Z,15.00
2018-11-04T17:52:37.721Z,14.90
2018-11-04T17:55:07.230Z,15.00
2018-11-04T17:57:36.373Z,15.00
2018-11-04T18:00:06.081Z,15.00
2018-11-04T18:02:35.171Z,15.00
2018-11-04T18:05:04.407Z,14.90
2018-11-04T18:07:33.433Z,14.70
2018-11-04T18:10:02.410Z,14.50
2018-11-04T18:12:31.604Z,14.40
2018-11-04T18:15:00.443Z,14.40
2018-11-04T18:17:29.232Z,14.60
2018-11-04T18:19:58.041Z,14.70
2018-11-04T18:22:27.243Z,14.70
2018-11-04T18:24:56.267Z,14.80
2018-11-04T18:27:25.559Z,14.80
2018-11-04T18:29:54.399Z,14.80
2018-11-04T18:32:23.538Z,14.80
2018-11-04T18:34:52.560Z,14.80
2018-11-04T18:37:21.356Z,14.80
2018-11-04T18:39:50.441Z,14.70
2018-11-04T18:42:19.516Z,14.70
2018-11-04T18:44:48.755Z,14.80
2018-11-04T18:47:17.786Z,14.80
2018-11-04T18:49:46.913Z,14.70
2018-11-04T18:52:16.205Z,14.60
2018-11-04T18:54:45.873Z,14.60
2018-11-04T18:57:14.891Z,14.70
2018-11-04T18:59:44.222Z,14.70
2018-11-04T19:02:13.012Z,14.80
2018-11-04T19:04:41.845Z,14.80
2018-11-04T19:07:10.735Z,14.80
2018-11-04T19:09:39.624Z,14.80
2018-11-04T19:13:41.313Z,14.80
2018-11-04T19:16:10.230Z,14.80
2018-11-04T19:18:39.228Z,14.80
2018-11-04T19:21:08.304Z,14.80
2018-11-04T19:23:37.157Z,14.80
2018-11-04T19:26:06.504Z,14.80
2018-11-04T19:28:35.710Z,14.80
2018-11-04T19:31:04.904Z,14.60
2018-11-04T19:33:34.014Z,14.60
2018-11-04T19:36:03.100Z,14.60
2018-11-04T19:38:32.187Z,14.70
2018-11-04T19:41:01.144Z,14.60
2018-11-04T19:43:30.140Z,14.70
2018-11-04T19:45:59.116Z,14.60
2018-11-04T19:48:28.390Z,14.60
2018-11-04T19:50:57.285Z,14.60
2018-11-04T19:53:26.239Z,14.60
2018-11-04T19:55:55.331Z,14.60
2018-11-04T20:00:43.737Z,14.60
2018-11-04T20:03:13.010Z,14.60
2018-11-04T20:05:42.181Z,14.50
2018-11-04T20:08:11.389Z,14.50
2018-11-04T20:10:40.579Z,14.60
2018-11-04T20:13:14.589Z,14.60
2018-11-04T20:15:43.699Z,14.60
2018-11-04T20:18:17.747Z,14.60
2018-11-04T20:20:46.811Z,14.60
2018-11-04T20:23:15.652Z,14.50
2018-11-04T20:25:49.724Z,14.50
2018-11-04T20:28:18.477Z,14.50
2018-11-04T20:30:47.488Z,14.60
2018-11-04T20:33:16.720Z,14.60
2018-11-04T20:35:45.799Z,14.60
2018-11-04T20:38:14.608Z,14.50
2018-11-04T20:40:49.186Z,14.40
2018-11-04T20:43:18.252Z,14.10
2018-11-04T20:45:47.343Z,14.20
2018-11-04T20:48:21.507Z,14.20
2018-11-04T20:50:55.565Z,14.20
2018-11-04T20:53:24.381Z,14.00
2018-11-04T20:55:58.365Z,14.00
2018-11-04T20:58:28.124Z,13.90
2018-11-04T21:00:57.180Z,13.90
2018-11-04T21:03:26.413Z,14.10
2018-11-04T21:05:55.484Z,14.20
2018-11-04T21:08:27.674Z,14.30
2018-11-04T21:10:56.725Z,14.30
2018-11-04T21:13:25.720Z,14.40
2018-11-04T21:15:54.954Z,14.40
2018-11-04T21:18:23.801Z,14.40
2018-11-04T21:20:52.825Z,14.30
2018-11-04T21:23:22.088Z,14.20
2018-11-04T21:25:51.244Z,14.00
2018-11-04T21:28:20.221Z,13.80
2018-11-04T21:30:49.299Z,13.90
2018-11-04T21:33:18.406Z,14.00
2018-11-04T21:35:47.361Z,14.10
2018-11-04T21:38:16.367Z,14.20
2018-11-04T21:40:45.482Z,14.20
2018-11-04T21:43:14.762Z,14.20
2018-11-04T21:45:43.538Z,14.20
2018-11-04T21:48:12.531Z,14.10
2018-11-04T21:50:41.531Z,14.10
2018-11-04T21:53:10.306Z,14.10
2018-11-04T21:55:39.268Z,14.20
2018-11-04T21:58:14.435Z,14.10
2018-11-04T22:00:43.444Z,13.90
2018-11-04T22:03:12.732Z,13.90
2018-11-04T22:05:41.376Z,13.80
2018-11-04T22:08:10.520Z,13.80
2018-11-04T22:10:39.549Z,13.90
2018-11-04T22:13:08.725Z,14.00
2018-11-04T22:15:37.903Z,14.00
2018-11-04T22:18:06.783Z,14.00
2018-11-04T22:20:35.651Z,14.00
2018-11-04T22:23:04.571Z,13.80
2018-11-04T22:25:33.556Z,13.50
2018-11-04T22:28:02.579Z,13.40
2018-11-04T22:30:31.596Z,13.40
2018-11-04T22:33:00.630Z,13.40
2018-11-04T22:35:29.602Z,13.50
2018-11-04T22:37:58.377Z,13.60
2018-11-04T22:40:27.164Z,13.80
2018-11-04T22:42:56.069Z,13.80
2018-11-04T22:45:24.883Z,13.90
2018-11-04T22:47:53.848Z,13.90
2018-11-04T22:50:22.647Z,13.90
2018-11-04T22:52:51.421Z,13.90
2018-11-04T22:55:20.659Z,13.90
2018-11-04T22:57:49.428Z,13.90
2018-11-04T23:01:24.352Z,13.80
2018-11-04T23:03:53.389Z,13.70
2018-11-04T23:06:22.121Z,13.60
2018-11-04T23:08:51.259Z,13.60
2018-11-04T23:11:20.349Z,13.70
2018-11-04T23:13:49.464Z,13.80
2018-11-04T23:16:18.652Z,13.80
2018-11-04T23:18:47.834Z,13.70
2018-11-04T23:21:16.743Z,13.60
2018-11-04T23:23:45.712Z,13.50
2018-11-04T23:26:14.845Z,13.50
2018-11-04T23:28:43.904Z,13.50
2018-11-04T23:31:13.003Z,13.60
2018-11-04T23:33:41.986Z,13.70
2018-11-04T23:36:11.086Z,13.70
2018-11-04T23:38:40.103Z,13.70
2018-11-04T23:41:09.187Z,13.80
2018-11-04T23:43:38.290Z,13.80
2018-11-04T23:46:07.572Z,13.80
2018-11-04T23:48:36.651Z,13.80
2018-11-04T23:51:06.091Z,13.80
2018-11-04T23:53:35.056Z,13.80
2018-11-04T23:56:04.175Z,13.80
2018-11-04T23:58:33.249Z,13.90
